createdAt,value
2022-08-30T00:00:40.714Z,52.97
2022-08-30T00:02:43.837Z,52.78
2022-08-30T00:04:45.974Z,53.29
2022-08-30T00:06:47.889Z,53.26
2022-08-30T00:08:50.563Z,53.17
2022-08-30T00:10:52.923Z,53.27
2022-08-30T00:12:56.248Z,53.02
2022-08-30T00:14:59.094Z,53.49
2022-08-30T00:17:04.504Z,53.56
2022-08-30T00:19:06.569Z,53.50
2022-08-30T00:21:15.477Z,53.32
2022-08-30T00:23:19.202Z,53.47
2022-08-30T00:25:21.694Z,53.20
2022-08-30T00:27:23.593Z,53.55
2022-08-30T00:29:25.665Z,53.42
2022-08-30T00:31:27.840Z,53.49
2022-08-30T00:33:30.738Z,53.21
2022-08-30T00:35:33.104Z,53.25
2022-08-30T00:37:35.405Z,53.39
2022-08-30T00:39:37.339Z,53.42
2022-08-30T00:41:39.561Z,53.87
2022-08-30T00:43:42.227Z,54.04
2022-08-30T00:45:44.334Z,54.15
2022-08-30T00:47:46.617Z,53.96
2022-08-30T00:49:51.767Z,54.14
2022-08-30T00:51:54.178Z,54.13
2022-08-30T00:53:57.319Z,54.13
2022-08-30T00:56:00.894Z,54.45
2022-08-30T00:58:06.979Z,54.46
2022-08-30T01:00:10.103Z,54.66
2022-08-30T01:02:12.940Z,54.53
2022-08-30T01:04:17.252Z,54.95
2022-08-30T01:06:19.857Z,54.94
2022-08-30T01:08:22.542Z,55.01
2022-08-30T01:10:24.709Z,54.94
2022-08-30T01:12:26.841Z,54.84
2022-08-30T01:14:28.942Z,55.05
2022-08-30T01:16:33.941Z,54.85
2022-08-30T01:18:37.454Z,54.91
2022-08-30T01:20:52.240Z,54.87
2022-08-30T01:22:54.140Z,54.97
2022-08-30T01:24:59.426Z,55.02
2022-08-30T01:27:01.484Z,55.24
2022-08-30T01:29:12.818Z,55.15
2022-08-30T01:31:16.150Z,55.42
2022-08-30T01:33:20.334Z,55.77
2022-08-30T01:35:22.553Z,55.44
2022-08-30T01:37:30.418Z,55.58
2022-08-30T01:39:33.457Z,55.60
2022-08-30T01:41:36.476Z,55.33
2022-08-30T01:43:39.223Z,55.67
2022-08-30T01:45:41.802Z,55.82
2022-08-30T01:47:43.845Z,55.53
2022-08-30T01:49:47.092Z,55.38
2022-08-30T01:51:49.158Z,55.76
2022-08-30T01:53:55.516Z,55.95
2022-08-30T01:55:57.588Z,55.80
2022-08-30T01:57:59.731Z,55.91
2022-08-30T02:00:01.761Z,55.79
2022-08-30T02:02:05.249Z,55.67
2022-08-30T02:04:09.828Z,55.80
2022-08-30T02:06:14.876Z,56.04
2022-08-30T02:08:16.906Z,55.97
2022-08-30T02:10:18.841Z,56.10
2022-08-30T02:12:21.093Z,56.22
2022-08-30T02:14:23.058Z,56.51
2022-08-30T02:16:25.896Z,56.56
2022-08-30T02:18:28.041Z,56.33
2022-08-30T02:20:30.093Z,56.44
2022-08-30T02:22:32.252Z,56.39
2022-08-30T02:24:34.244Z,56.74
2022-08-30T02:26:36.733Z,56.56
2022-08-30T02:28:49.709Z,56.78
2022-08-30T02:30:53.146Z,57.01
2022-08-30T02:32:55.180Z,56.53
2022-08-30T02:34:57.188Z,56.67
2022-08-30T02:36:59.266Z,56.61
2022-08-30T02:39:01.374Z,56.85
2022-08-30T02:41:13.159Z,56.88
2022-08-30T02:43:16.037Z,56.93
2022-08-30T02:45:18.386Z,57.10
2022-08-30T02:47:21.424Z,56.79
2022-08-30T02:49:33.185Z,56.60
2022-08-30T02:51:36.172Z,56.85
2022-08-30T02:53:39.519Z,56.89
2022-08-30T02:55:41.535Z,56.85
2022-08-30T02:57:44.729Z,56.93
2022-08-30T02:59:48.102Z,56.88
2022-08-30T03:01:50.556Z,57.19
2022-08-30T03:03:52.668Z,56.91
2022-08-30T03:05:54.611Z,57.14
2022-08-30T03:07:56.848Z,57.06
2022-08-30T03:09:58.928Z,56.96
2022-08-30T03:12:01.421Z,57.43
2022-08-30T03:14:04.150Z,57.67
2022-08-30T03:16:06.104Z,57.79
2022-08-30T03:18:11.106Z,57.69
2022-08-30T03:20:14.141Z,57.78
2022-08-30T03:22:16.191Z,57.83
2022-08-30T03:24:18.675Z,58.01
2022-08-30T03:26:20.604Z,58.13
2022-08-30T03:28:22.337Z,58.01
2022-08-30T03:30:24.164Z,58.22
2022-08-30T03:32:26.193Z,57.99
2022-08-30T03:34:28.322Z,58.19
2022-08-30T03:36:30.181Z,58.25
2022-08-30T03:38:31.956Z,58.38
2022-08-30T03:40:33.861Z,58.63
2022-08-30T03:42:36.169Z,58.67
2022-08-30T03:44:38.697Z,58.78
2022-08-30T03:46:45.208Z,59.05
2022-08-30T03:48:47.228Z,58.80
2022-08-30T03:50:49.146Z,59.03
2022-08-30T03:52:51.229Z,58.94
2022-08-30T03:54:53.104Z,58.95
2022-08-30T03:56:54.968Z,59.50
2022-08-30T03:58:57.149Z,59.60
2022-08-30T04:00:59.138Z,59.71
2022-08-30T04:03:01.165Z,59.74
2022-08-30T04:05:03.844Z,59.71
2022-08-30T04:07:05.921Z,59.94
2022-08-30T04:09:07.890Z,60.10
2022-08-30T04:11:09.757Z,59.87
2022-08-30T04:13:11.619Z,60.04
2022-08-30T04:15:14.579Z,60.25
2022-08-30T04:17:16.429Z,60.40
2022-08-30T04:19:18.946Z,60.25
2022-08-30T04:21:20.900Z,60.42
2022-08-30T04:23:25.044Z,60.25
2022-08-30T04:25:26.986Z,60.39
2022-08-30T04:27:28.929Z,60.79
2022-08-30T04:29:30.956Z,60.59
2022-08-30T04:31:33.065Z,60.74
2022-08-30T04:33:35.809Z,60.50
2022-08-30T04:35:48.850Z,60.85
2022-08-30T04:37:51.073Z,61.04
2022-08-30T04:39:57.879Z,61.08
2022-08-30T04:41:59.917Z,61.05
2022-08-30T04:44:03.664Z,60.99
2022-08-30T04:46:08.040Z,61.28
2022-08-30T04:48:10.527Z,61.22
2022-08-30T04:50:15.888Z,61.26
2022-08-30T04:52:17.954Z,61.22
2022-08-30T04:54:19.951Z,61.41
2022-08-30T04:56:24.053Z,61.47
2022-08-30T04:58:26.277Z,61.29
2022-08-30T05:00:28.243Z,61.06
2022-08-30T05:02:30.261Z,61.26
2022-08-30T05:04:32.251Z,61.62
2022-08-30T05:06:34.499Z,61.33
2022-08-30T05:08:36.497Z,61.64
2022-08-30T05:10:40.869Z,61.37
2022-08-30T05:12:43.596Z,61.52
2022-08-30T05:14:45.399Z,61.90
2022-08-30T05:16:48.100Z,61.72
2022-08-30T05:18:51.174Z,61.85
2022-08-30T05:21:10.881Z,61.62
2022-08-30T05:23:12.914Z,61.89
2022-08-30T05:25:15.590Z,62.18
2022-08-30T05:27:17.700Z,62.09
2022-08-30T05:29:22.267Z,61.97
2022-08-30T05:31:34.693Z,62.37
2022-08-30T05:33:38.889Z,62.32
2022-08-30T05:35:41.023Z,62.26
2022-08-30T05:37:43.451Z,62.21
2022-08-30T05:39:51.116Z,61.98
2022-08-30T05:41:59.655Z,62.40
2022-08-30T05:44:02.869Z,62.25
2022-08-30T05:46:07.709Z,62.27
2022-08-30T05:48:09.771Z,62.12
2022-08-30T05:50:15.273Z,62.49
2022-08-30T05:52:18.320Z,62.29
2022-08-30T05:54:20.125Z,62.56
2022-08-30T05:56:26.015Z,62.31
2022-08-30T05:58:27.705Z,62.20
2022-08-30T06:00:31.040Z,62.34
2022-08-30T06:02:33.289Z,62.51
2022-08-30T06:04:36.804Z,62.10
2022-08-30T06:06:44.209Z,62.56
2022-08-30T06:08:47.497Z,62.49
2022-08-30T06:10:49.323Z,62.35
2022-08-30T06:12:51.063Z,62.45
2022-08-30T06:14:53.635Z,62.68
2022-08-30T06:16:55.498Z,62.31
2022-08-30T06:18:58.934Z,62.25
2022-08-30T06:21:00.757Z,62.32
2022-08-30T06:23:02.622Z,62.28
2022-08-30T06:25:05.029Z,62.62
2022-08-30T06:27:06.757Z,62.55
2022-08-30T06:29:10.882Z,62.29
2022-08-30T06:31:15.458Z,62.64
2022-08-30T06:33:17.149Z,62.59
2022-08-30T06:35:19.983Z,62.87
2022-08-30T06:37:24.607Z,62.61
2022-08-30T06:39:31.905Z,62.55
2022-08-30T06:41:35.912Z,62.72
2022-08-30T06:43:39.020Z,62.77
2022-08-30T06:45:43.353Z,62.61
2022-08-30T06:47:46.951Z,62.39
2022-08-30T06:49:50.433Z,62.59
2022-08-30T06:51:54.014Z,62.48
2022-08-30T06:53:57.203Z,62.35
2022-08-30T06:56:05.152Z,62.41
2022-08-30T06:58:07.433Z,62.54
2022-08-30T07:00:14.581Z,62.56
2022-08-30T07:02:17.130Z,62.92
2022-08-30T07:04:19.638Z,62.96
2022-08-30T07:06:26.934Z,62.75
2022-08-30T07:08:29.576Z,62.95
2022-08-30T07:10:34.073Z,62.77
2022-08-30T07:12:43.247Z,62.53
2022-08-30T07:14:45.535Z,62.60
2022-08-30T07:16:50.913Z,62.55
2022-08-30T07:18:57.439Z,62.47
2022-08-30T07:21:09.082Z,62.06
2022-08-30T07:23:11.025Z,62.15
2022-08-30T07:25:14.413Z,62.23
2022-08-30T07:27:16.583Z,61.97
2022-08-30T07:29:18.386Z,62.03
2022-08-30T07:31:22.409Z,62.03
2022-08-30T07:33:24.115Z,61.92
2022-08-30T07:35:28.049Z,61.59
2022-08-30T07:37:31.304Z,61.65
2022-08-30T07:39:35.715Z,61.62
2022-08-30T07:41:41.854Z,61.69
2022-08-30T07:43:50.271Z,61.71
2022-08-30T07:45:52.239Z,61.53
2022-08-30T07:47:54.451Z,61.56
2022-08-30T07:50:00.597Z,61.71
2022-08-30T07:52:02.597Z,61.31
2022-08-30T07:54:07.570Z,61.28
2022-08-30T07:56:12.327Z,61.23
2022-08-30T07:58:14.632Z,60.89
2022-08-30T08:00:17.676Z,60.88
2022-08-30T08:02:22.233Z,60.88
2022-08-30T08:04:24.378Z,60.66
2022-08-30T08:06:29.809Z,60.51
2022-08-30T08:08:40.765Z,60.50
2022-08-30T08:10:43.204Z,60.37
2022-08-30T08:12:48.408Z,60.37
2022-08-30T08:14:52.465Z,60.40
2022-08-30T08:16:54.603Z,60.21
2022-08-30T08:18:59.098Z,60.20
2022-08-30T08:21:02.872Z,59.85
2022-08-30T08:23:06.232Z,59.62
2022-08-30T08:25:09.295Z,59.74
2022-08-30T08:27:14.858Z,59.50
2022-08-30T08:29:16.603Z,59.46
2022-08-30T08:31:33.669Z,59.20
2022-08-30T08:33:36.125Z,58.91
2022-08-30T08:35:37.978Z,58.97
2022-08-30T08:37:41.763Z,58.70
2022-08-30T08:39:46.616Z,58.38
2022-08-30T08:41:58.544Z,58.43
2022-08-30T08:44:12.810Z,57.99
2022-08-30T08:46:31.693Z,57.74
2022-08-30T08:49:00.067Z,57.41
2022-08-30T08:51:32.645Z,57.37
2022-08-30T08:53:47.283Z,57.30
2022-08-30T08:55:52.778Z,57.30
2022-08-30T08:57:54.487Z,57.05
2022-08-30T08:59:58.475Z,56.60
2022-08-30T09:02:04.086Z,56.27
2022-08-30T09:04:12.164Z,56.33
2022-08-30T09:06:35.164Z,56.38
2022-08-30T09:08:41.215Z,56.05
2022-08-30T09:11:06.902Z,55.27
2022-08-30T09:13:08.647Z,55.06
2022-08-30T09:15:29.489Z,54.96
2022-08-30T09:17:53.173Z,54.58
2022-08-30T09:19:55.560Z,54.03
2022-08-30T09:21:59.926Z,53.94
2022-08-30T09:24:12.442Z,53.96
2022-08-30T09:26:14.378Z,53.55
2022-08-30T09:28:22.413Z,53.42
2022-08-30T09:30:33.197Z,53.17
2022-08-30T09:32:41.398Z,53.29
2022-08-30T09:34:44.189Z,52.76
2022-08-30T09:36:55.637Z,52.61
2022-08-30T09:39:05.052Z,52.62
2022-08-30T09:41:26.635Z,51.81
2022-08-30T09:43:32.307Z,51.81
2022-08-30T09:45:44.409Z,51.29
2022-08-30T09:47:46.144Z,51.70
2022-08-30T09:49:58.202Z,51.19
2022-08-30T09:52:25.383Z,50.63
2022-08-30T09:54:39.682Z,50.52
2022-08-30T09:56:56.739Z,50.43
2022-08-30T09:59:23.612Z,50.46
2022-08-30T10:01:33.449Z,50.33
2022-08-30T10:04:00.071Z,50.27
2022-08-30T10:06:08.563Z,50.29
2022-08-30T10:09:02.256Z,50.03
2022-08-30T10:11:08.202Z,50.02
2022-08-30T10:13:44.944Z,49.70
2022-08-30T10:16:13.145Z,49.60
2022-08-30T10:18:14.853Z,49.27
2022-08-30T10:20:37.098Z,48.67
2022-08-30T10:23:12.693Z,48.51
2022-08-30T10:25:23.543Z,48.11
2022-08-30T10:27:29.460Z,47.46
2022-08-30T10:30:15.059Z,47.40
2022-08-30T10:32:31.744Z,47.54
2022-08-30T10:34:42.177Z,46.58
2022-08-30T10:36:57.931Z,46.64
2022-08-30T10:39:05.203Z,46.41
2022-08-30T10:41:35.832Z,45.87
2022-08-30T10:44:10.737Z,45.39
2022-08-30T10:46:27.856Z,45.63
2022-08-30T10:48:36.534Z,44.97
2022-08-30T10:50:47.409Z,44.93
2022-08-30T10:53:21.796Z,44.21
2022-08-30T10:55:32.048Z,44.54
2022-08-30T10:57:34.962Z,44.26
2022-08-30T10:59:48.423Z,45.02
2022-08-30T11:02:25.667Z,44.35
2022-08-30T11:05:00.679Z,43.68
2022-08-30T11:07:11.163Z,42.97
2022-08-30T11:09:32.700Z,42.94
2022-08-30T11:11:58.950Z,42.63
2022-08-30T11:14:08.425Z,41.89
2022-08-30T11:16:16.704Z,42.16
2022-08-30T11:18:19.319Z,41.60
2022-08-30T11:20:41.847Z,41.03
2022-08-30T11:23:06.378Z,40.19
2022-08-30T11:25:16.167Z,39.78
2022-08-30T11:27:51.537Z,39.88
2022-08-30T11:29:53.966Z,39.31
2022-08-30T11:32:14.784Z,38.51
2022-08-30T11:34:54.052Z,38.47
2022-08-30T11:36:56.057Z,39.09
2022-08-30T11:39:09.210Z,38.91
2022-08-30T11:41:30.578Z,39.14
2022-08-30T11:43:36.886Z,39.16
2022-08-30T11:45:52.299Z,39.31
2022-08-30T11:48:18.916Z,39.53
2022-08-30T11:50:37.256Z,39.85
2022-08-30T11:52:46.859Z,40.49
2022-08-30T11:55:06.926Z,39.90
2022-08-30T11:57:36.339Z,39.69
2022-08-30T11:59:54.240Z,39.61
2022-08-30T12:01:58.078Z,39.98
2022-08-30T12:04:33.941Z,39.90
2022-08-30T12:06:50.521Z,39.84
2022-08-30T12:08:57.927Z,39.34
2022-08-30T12:11:27.316Z,39.39
2022-08-30T12:13:38.139Z,39.48
2022-08-30T12:15:57.747Z,39.04
2022-08-30T12:18:20.114Z,38.94
2022-08-30T12:20:26.303Z,39.08
2022-08-30T12:22:38.741Z,38.74
2022-08-30T12:24:47.887Z,38.36
2022-08-30T12:26:51.436Z,38.22
2022-08-30T12:29:10.942Z,38.08
2022-08-30T12:31:23.134Z,38.14
2022-08-30T12:33:41.281Z,38.28
2022-08-30T12:35:44.582Z,38.57
2022-08-30T12:38:02.860Z,37.99
2022-08-30T12:40:25.232Z,38.84
2022-08-30T12:42:29.788Z,38.00
2022-08-30T12:44:35.536Z,37.98
2022-08-30T12:46:38.456Z,37.25
2022-08-30T12:48:41.528Z,37.43
2022-08-30T12:50:54.025Z,37.15
2022-08-30T12:53:03.083Z,36.87
2022-08-30T12:55:24.489Z,36.65
2022-08-30T12:57:43.054Z,36.96
2022-08-30T12:59:58.494Z,37.45
2022-08-30T13:02:43.567Z,37.67
2022-08-30T13:04:49.690Z,37.71
2022-08-30T13:06:58.521Z,38.07
2022-08-30T13:09:04.054Z,37.89
2022-08-30T13:11:29.999Z,38.05
2022-08-30T13:13:52.217Z,38.16
2022-08-30T13:15:56.530Z,38.86
2022-08-30T13:18:30.977Z,38.22
2022-08-30T13:20:33.200Z,38.21
2022-08-30T13:22:40.778Z,38.69
2022-08-30T13:24:45.142Z,38.38
2022-08-30T13:26:52.701Z,38.84
2022-08-30T13:28:59.105Z,39.72
2022-08-30T13:31:01.871Z,38.84
2022-08-30T13:33:06.399Z,39.66
2022-08-30T13:35:10.429Z,38.99
2022-08-30T13:39:43.860Z,38.09
2022-08-30T13:41:45.804Z,37.86
2022-08-30T13:46:17.884Z,37.34
2022-08-30T13:48:25.093Z,37.23
2022-08-30T13:50:27.443Z,37.44
2022-08-30T13:52:30.854Z,37.83
2022-08-30T13:54:33.264Z,37.89
2022-08-30T13:56:36.435Z,37.92
2022-08-30T13:58:38.614Z,37.99
2022-08-30T14:00:40.581Z,38.16
2022-08-30T14:02:46.322Z,38.59
2022-08-30T14:04:57.697Z,37.73
2022-08-30T14:07:14.038Z,37.80
2022-08-30T14:09:23.342Z,37.21
2022-08-30T14:11:28.488Z,37.39
2022-08-30T14:13:30.488Z,37.57
2022-08-30T14:15:44.117Z,37.19
2022-08-30T14:17:48.092Z,37.31
2022-08-30T14:19:50.096Z,37.50
2022-08-30T14:21:52.377Z,37.91
2022-08-30T14:23:58.033Z,37.88
2022-08-30T14:26:01.988Z,38.03
2022-08-30T14:28:04.766Z,38.49
2022-08-30T14:30:21.175Z,38.72
2022-08-30T14:32:23.784Z,39.43
2022-08-30T14:34:26.614Z,39.42
2022-08-30T14:36:32.966Z,39.90
2022-08-30T14:38:36.353Z,40.20
2022-08-30T14:40:39.203Z,40.36
2022-08-30T14:42:43.943Z,40.30
2022-08-30T14:44:56.330Z,40.41
2022-08-30T14:47:03.263Z,41.11
2022-08-30T14:49:05.859Z,41.31
2022-08-30T14:51:27.413Z,40.67
2022-08-30T14:53:30.609Z,40.65
2022-08-30T14:55:38.070Z,40.14
2022-08-30T14:57:42.273Z,40.35
2022-08-30T14:59:45.423Z,40.50
2022-08-30T15:01:48.600Z,41.25
2022-08-30T15:03:52.097Z,41.30
2022-08-30T15:05:54.701Z,41.40
2022-08-30T15:08:00.093Z,41.16
2022-08-30T15:10:03.124Z,41.57
2022-08-30T15:12:05.628Z,41.23
2022-08-30T15:14:15.842Z,41.38
2022-08-30T15:16:31.120Z,41.31
2022-08-30T15:18:34.080Z,40.79
2022-08-30T15:20:38.675Z,41.26
2022-08-30T15:22:41.427Z,40.76
2022-08-30T15:24:49.009Z,40.01
2022-08-30T15:26:55.663Z,39.96
2022-08-30T15:28:57.794Z,39.41
2022-08-30T15:30:59.560Z,38.87
2022-08-30T15:33:04.522Z,38.03
2022-08-30T15:35:08.299Z,38.52
2022-08-30T15:37:10.134Z,38.43
2022-08-30T15:39:14.530Z,37.54
2022-08-30T15:41:16.295Z,37.13
2022-08-30T15:43:20.056Z,36.34
2022-08-30T15:45:23.003Z,36.77
2022-08-30T15:47:25.078Z,36.60
2022-08-30T15:49:27.975Z,35.11
2022-08-30T15:51:41.701Z,34.31
2022-08-30T15:53:45.749Z,35.14
2022-08-30T15:55:48.424Z,34.83
2022-08-30T15:57:54.382Z,33.84
2022-08-30T15:59:56.367Z,34.35
2022-08-30T16:01:59.661Z,35.09
2022-08-30T16:04:02.112Z,34.16
2022-08-30T16:06:04.026Z,34.12
2022-08-30T16:08:09.297Z,35.05
2022-08-30T16:10:15.379Z,34.22
2022-08-30T16:12:23.396Z,34.01
2022-08-30T16:14:29.253Z,34.49
2022-08-30T16:16:35.696Z,34.23
2022-08-30T16:18:40.681Z,34.20
2022-08-30T16:20:45.473Z,33.69
2022-08-30T16:22:47.947Z,34.70
2022-08-30T16:24:49.851Z,35.29
2022-08-30T16:26:54.134Z,34.38
2022-08-30T16:28:59.071Z,34.83
2022-08-30T16:31:02.999Z,33.37
2022-08-30T16:33:07.298Z,33.83
2022-08-30T16:35:14.771Z,33.88
2022-08-30T16:37:16.626Z,34.29
2022-08-30T16:39:19.810Z,34.17
2022-08-30T16:41:23.899Z,34.55
2022-08-30T16:43:25.625Z,35.08
2022-08-30T16:45:34.271Z,34.99
2022-08-30T16:47:38.561Z,34.92
2022-08-30T16:49:40.501Z,34.72
2022-08-30T16:51:45.737Z,34.60
2022-08-30T16:53:49.632Z,34.59
2022-08-30T16:55:52.698Z,35.51
2022-08-30T16:57:56.369Z,36.25
2022-08-30T17:00:02.233Z,35.41
2022-08-30T17:02:06.045Z,35.78
2022-08-30T17:04:09.509Z,35.34
2022-08-30T17:06:13.486Z,36.59
2022-08-30T17:08:15.395Z,35.57
2022-08-30T17:10:22.967Z,36.76
2022-08-30T17:12:26.579Z,36.59
2022-08-30T17:14:29.168Z,37.17
2022-08-30T17:16:33.100Z,37.21
2022-08-30T17:18:38.125Z,37.26
2022-08-30T17:20:39.866Z,37.55
2022-08-30T17:22:51.427Z,38.39
2022-08-30T17:24:56.759Z,38.79
2022-08-30T17:26:59.000Z,39.06
2022-08-30T17:29:03.896Z,38.18
2022-08-30T17:31:08.594Z,38.19
2022-08-30T17:33:11.713Z,38.89
2022-08-30T17:35:15.668Z,39.08
2022-08-30T17:37:21.311Z,39.77
2022-08-30T17:39:25.322Z,40.06
2022-08-30T17:41:37.781Z,39.17
2022-08-30T17:43:48.108Z,39.21
2022-08-30T17:45:50.369Z,38.38
2022-08-30T17:48:00.431Z,38.14
2022-08-30T17:50:06.838Z,38.40
2022-08-30T17:52:11.662Z,38.43
2022-08-30T17:54:21.362Z,38.41
2022-08-30T17:56:35.241Z,39.03
2022-08-30T17:58:38.160Z,40.04
2022-08-30T18:00:42.390Z,40.48
2022-08-30T18:02:47.676Z,41.51
2022-08-30T18:04:50.327Z,41.80
2022-08-30T18:06:53.297Z,43.23
2022-08-30T18:09:15.168Z,42.96
2022-08-30T18:11:16.944Z,43.30
2022-08-30T18:13:22.415Z,43.35
2022-08-30T18:15:28.751Z,43.94
2022-08-30T18:17:31.363Z,43.86
2022-08-30T18:19:46.272Z,44.51
2022-08-30T18:21:52.068Z,44.36
2022-08-30T18:23:54.030Z,44.56
2022-08-30T18:26:06.016Z,44.74
2022-08-30T18:28:19.871Z,44.69
2022-08-30T18:30:23.830Z,44.87
2022-08-30T18:32:31.348Z,45.28
2022-08-30T18:34:42.416Z,45.09
2022-08-30T18:36:47.372Z,45.42
2022-08-30T18:38:51.201Z,45.71
2022-08-30T18:41:11.146Z,45.77
2022-08-30T18:43:21.203Z,44.82
2022-08-30T18:45:27.012Z,45.14
2022-08-30T18:47:33.140Z,45.02
2022-08-30T18:49:40.791Z,44.31
2022-08-30T18:51:42.514Z,44.11
2022-08-30T18:54:00.630Z,43.62
2022-08-30T18:56:03.327Z,43.03
2022-08-30T18:58:05.816Z,42.83
2022-08-30T19:00:16.962Z,41.84
2022-08-30T19:02:27.747Z,42.00
2022-08-30T19:04:35.065Z,41.48
2022-08-30T19:06:50.849Z,41.51
2022-08-30T19:08:57.910Z,41.70
2022-08-30T19:11:04.972Z,41.53
2022-08-30T19:13:15.463Z,41.60
2022-08-30T19:15:26.311Z,42.21
2022-08-30T19:17:28.370Z,41.30
2022-08-30T19:19:35.241Z,41.44
2022-08-30T19:21:41.324Z,41.63
2022-08-30T19:23:43.329Z,41.42
2022-08-30T19:25:55.562Z,41.52
2022-08-30T19:28:05.607Z,41.52
2022-08-30T19:30:12.225Z,41.43
2022-08-30T19:32:15.389Z,41.28
2022-08-30T19:34:19.349Z,41.63
2022-08-30T19:36:24.618Z,41.25
2022-08-30T19:38:29.130Z,41.47
2022-08-30T19:40:33.168Z,41.52
2022-08-30T19:42:39.468Z,41.37
2022-08-30T19:44:48.893Z,41.55
2022-08-30T19:46:56.441Z,41.56
2022-08-30T19:48:58.609Z,41.45
2022-08-30T19:51:08.790Z,41.51
2022-08-30T19:53:27.588Z,41.51
2022-08-30T19:55:31.502Z,41.29
2022-08-30T19:57:34.243Z,42.06
2022-08-30T19:59:40.403Z,41.46
2022-08-30T20:01:45.790Z,41.61
2022-08-30T20:03:49.525Z,41.64
2022-08-30T20:05:54.438Z,42.07
2022-08-30T20:08:00.885Z,42.00
2022-08-30T20:10:09.394Z,42.26
2022-08-30T20:12:14.621Z,42.64
2022-08-30T20:14:21.397Z,42.55
2022-08-30T20:18:57.372Z,43.16
2022-08-30T20:21:02.818Z,43.13
2022-08-30T20:23:06.213Z,43.45
2022-08-30T20:25:33.757Z,43.90
2022-08-30T20:27:39.758Z,44.35
2022-08-30T20:29:42.342Z,44.48
2022-08-30T20:31:54.278Z,44.72
2022-08-30T20:33:56.610Z,44.76
2022-08-30T20:36:02.659Z,45.04
2022-08-30T20:38:13.825Z,45.44
2022-08-30T20:40:18.465Z,45.39
2022-08-30T20:42:20.677Z,45.66
2022-08-30T20:44:27.187Z,45.63
2022-08-30T20:46:38.804Z,45.81
2022-08-30T20:48:41.908Z,46.08
2022-08-30T20:50:45.900Z,46.10
2022-08-30T20:52:50.737Z,46.28
2022-08-30T20:54:54.569Z,46.27
2022-08-30T20:56:57.748Z,46.49
2022-08-30T20:59:04.994Z,46.61
2022-08-30T21:01:09.831Z,46.72
2022-08-30T21:03:25.857Z,46.93
2022-08-30T21:05:29.760Z,46.61
2022-08-30T21:07:31.677Z,46.68
2022-08-30T21:09:39.982Z,46.84
2022-08-30T21:11:53.150Z,46.85
2022-08-30T21:13:55.216Z,46.84
2022-08-30T21:16:00.602Z,47.26
2022-08-30T21:18:18.062Z,47.14
2022-08-30T21:20:20.662Z,46.86
2022-08-30T21:22:26.576Z,46.61
2022-08-30T21:24:48.130Z,46.45
2022-08-30T21:26:54.130Z,46.45
2022-08-30T21:28:56.080Z,46.50
2022-08-30T21:31:26.884Z,46.52
2022-08-30T21:33:28.926Z,46.55
2022-08-30T21:35:49.541Z,46.56
2022-08-30T21:37:58.147Z,46.78
2022-08-30T21:40:02.320Z,46.83
2022-08-30T21:42:04.636Z,46.72
2022-08-30T21:44:16.978Z,47.44
2022-08-30T21:46:24.396Z,47.65
2022-08-30T21:48:26.464Z,47.06
2022-08-30T21:50:38.384Z,47.10
2022-08-30T21:52:44.059Z,47.18
2022-08-30T21:54:46.158Z,47.51
2022-08-30T21:56:57.142Z,47.47
2022-08-30T21:59:00.728Z,47.56
2022-08-30T22:01:21.268Z,47.67
2022-08-30T22:03:23.056Z,47.67
2022-08-30T22:05:27.320Z,47.63
2022-08-30T22:07:30.026Z,47.67
2022-08-30T22:10:00.591Z,47.77
2022-08-30T22:12:06.982Z,47.64
2022-08-30T22:14:22.960Z,47.94
2022-08-30T22:16:25.301Z,47.94
2022-08-30T22:18:28.760Z,47.86
2022-08-30T22:20:43.323Z,48.13
2022-08-30T22:22:46.336Z,48.30
2022-08-30T22:24:51.873Z,48.26
2022-08-30T22:26:56.408Z,48.69
2022-08-30T22:28:58.259Z,48.48
2022-08-30T22:31:04.433Z,48.64
2022-08-30T22:33:07.287Z,48.73
2022-08-30T22:35:09.600Z,48.89
2022-08-30T22:37:15.207Z,49.37
2022-08-30T22:39:18.515Z,49.73
2022-08-30T22:41:25.524Z,49.86
2022-08-30T22:43:38.711Z,50.25
2022-08-30T22:45:45.383Z,50.67
2022-08-30T22:47:47.783Z,50.83
2022-08-30T22:49:53.976Z,51.27
2022-08-30T22:51:58.137Z,51.38
2022-08-30T22:54:01.332Z,51.63
2022-08-30T22:56:19.585Z,51.84
2022-08-30T22:58:22.291Z,52.11
2022-08-30T23:00:24.503Z,52.16
2022-08-30T23:02:27.648Z,52.17
2022-08-30T23:04:35.782Z,52.22
2022-08-30T23:06:40.469Z,52.17
2022-08-30T23:08:45.614Z,52.60
2022-08-30T23:10:52.589Z,53.27
2022-08-30T23:12:55.868Z,53.19
2022-08-30T23:15:02.157Z,53.24
2022-08-30T23:17:07.412Z,53.58
2022-08-30T23:19:11.226Z,53.56
2022-08-30T23:21:29.491Z,53.54
2022-08-30T23:23:53.028Z,53.56
2022-08-30T23:26:23.596Z,53.92
2022-08-30T23:28:43.850Z,53.84
2022-08-30T23:31:05.979Z,53.83
2022-08-30T23:33:29.526Z,53.95
2022-08-30T23:35:51.441Z,53.89
2022-08-30T23:38:11.931Z,54.22
2022-08-30T23:40:33.345Z,54.27
2022-08-30T23:45:37.039Z,54.12
2022-08-30T23:47:57.418Z,54.13
2022-08-30T23:50:20.651Z,54.13
2022-08-30T23:52:44.918Z,54.16
2022-08-30T23:55:12.046Z,54.19
2022-08-30T23:57:32.501Z,54.28
2022-08-30T23:59:54.131Z,54.23
